Cedar Point, Texas
Current Conditions -  °F | °C
As of 8:50 AM on Wednesday 22 Oct 2014 (Local Time) from KEFD Reporting Station
Few Clouds Few Clouds  
Wind Chill: 70°   Ceiling: Unl
Heat Index: 70°   Visibility: 10mi
Dew Point: 64°   Wind: 7mph
Humidity: 83%   Direction: 40°NE
Pressure: 30.1"   Gusts: NA
Location:  29.7803°N, 94.894°W
Report Text: KEFD 221350Z 04006KT 10SM FEW250 21/18 A3010
Loading
Personal Weather Stations






























Interactive Weather Map
Tropical Storm Tracking
New forecast layout! Learn more

10-Day Weather Forecast

Advertisements
Track Severe Weather on mobile